Time;durP1;ratioP1;P1;durP2;ratioP2;P2;SDS_P1;SDS_P2;PMS_P1;PMS_P2;Temp;Humidity;BMP_temperature;BMP_pressure;BME280_temperature;BME280_humidity;BME280_pressure;Samples;Min_cycle;Max_cycle;Signal;HPM_P1;HPM_P2
2022/03/24 00:00:29;;;;;;;58.92;28.30;;;7.00;99.90;;;;;;5100074;28;20111;-80
2022/03/24 00:02:55;;;;;;;260.23;109.20;;;7.00;99.90;;;;;;5100741;28;20013;-80
2022/03/24 00:05:21;;;;;;;135.40;57.97;;;7.00;99.90;;;;;;5099109;28;20453;-80
2022/03/24 00:07:47;;;;;;;192.88;76.97;;;6.90;99.90;;;;;;5097786;28;20024;-80
2022/03/24 00:10:13;;;;;;;94.85;42.90;;;6.90;99.90;;;;;;5098876;28;20361;-80
2022/03/24 00:12:39;;;;;;;68.88;31.98;;;6.90;99.90;;;;;;5098927;28;20162;-79
2022/03/24 00:15:07;;;;;;;45.25;20.17;;;7.00;99.90;;;;;;5098764;28;20020;-80
2022/03/24 00:17:33;;;;;;;91.28;36.05;;;6.90;99.90;;;;;;5096682;28;20024;-79
2022/03/24 00:20:00;;;;;;;313.63;123.35;;;7.00;99.90;;;;;;5095030;28;20087;-80
2022/03/24 00:22:27;;;;;;;57.38;26.50;;;7.00;99.90;;;;;;5097025;28;20020;-80
2022/03/24 00:24:53;;;;;;;259.48;104.88;;;6.90;99.90;;;;;;5099033;28;20091;-80
2022/03/24 00:27:19;;;;;;;194.65;77.13;;;7.00;99.90;;;;;;5097773;28;20506;-79
2022/03/24 00:29:45;;;;;;;84.47;36.38;;;7.00;99.90;;;;;;5099925;28;20027;-79
2022/03/24 00:32:11;;;;;;;49.97;24.70;;;7.00;99.90;;;;;;5097533;28;20062;-80
2022/03/24 00:34:38;;;;;;;79.13;34.42;;;7.00;99.90;;;;;;5098752;28;20083;-79
2022/03/24 00:37:04;;;;;;;117.97;48.53;;;7.00;99.90;;;;;;5097130;28;20057;-80
2022/03/24 00:39:33;;;;;;;32.75;18.13;;;7.00;99.90;;;;;;5097382;28;20031;-80
2022/03/24 00:42:05;;;;;;;292.23;116.68;;;7.00;99.90;;;;;;5098278;28;20068;-80
2022/03/24 00:44:32;;;;;;;161.88;64.80;;;6.90;99.90;;;;;;5098923;28;20388;-79
2022/03/24 00:46:58;;;;;;;45.60;27.50;;;6.90;99.90;;;;;;5097107;28;20024;-79
2022/03/24 00:49:25;;;;;;;18.08;12.98;;;6.90;99.90;;;;;;5097152;28;20024;-80
2022/03/24 00:51:50;;;;;;;18.75;12.48;;;6.90;99.90;;;;;;5100484;28;20040;-79
2022/03/24 00:54:18;;;;;;;16.63;11.38;;;6.90;99.90;;;;;;5100835;28;20025;-80
2022/03/24 00:56:45;;;;;;;15.52;11.32;;;6.90;99.90;;;;;;5100261;28;20028;-80
2022/03/24 00:59:12;;;;;;;16.20;11.30;;;6.90;99.90;;;;;;5100174;28;20024;-80
2022/03/24 01:01:39;;;;;;;21.80;13.15;;;6.80;99.90;;;;;;5100764;28;20032;-80
2022/03/24 01:04:06;;;;;;;16.60;11.93;;;6.80;99.90;;;;;;5100425;28;20020;-79
2022/03/24 01:06:34;;;;;;;13.30;11.05;;;6.80;99.90;;;;;;5095924;28;20020;-79
2022/03/24 01:09:04;;;;;;;16.63;11.75;;;6.80;99.90;;;;;;5094573;28;20069;-80
2022/03/24 01:11:31;;;;;;;19.50;13.73;;;6.80;99.90;;;;;;5099350;28;20027;-80
2022/03/24 01:13:57;;;;;;;16.63;10.77;;;6.70;99.90;;;;;;5101171;28;20034;-80
2022/03/24 01:16:23;;;;;;;14.13;11.23;;;6.70;99.90;;;;;;5082992;28;20028;-80
2022/03/24 01:18:50;;;;;;;15.63;11.02;;;6.80;99.90;;;;;;5100187;28;20043;-81
2022/03/24 01:21:16;;;;;;;15.05;11.70;;;6.80;99.90;;;;;;5098890;28;20028;-80
2022/03/24 01:23:46;;;;;;;16.88;11.70;;;6.80;99.90;;;;;;5099279;28;20026;-80
2022/03/24 01:26:13;;;;;;;18.53;11.10;;;6.80;99.90;;;;;;5098251;28;20396;-81
2022/03/24 01:28:40;;;;;;;14.25;11.13;;;6.80;99.90;;;;;;5097094;28;20028;-80
2022/03/24 01:31:08;;;;;;;15.82;11.35;;;6.90;99.90;;;;;;5096635;28;20811;-80
2022/03/24 01:33:38;;;;;;;14.60;11.40;;;6.80;99.90;;;;;;5097518;28;20028;-81
2022/03/24 01:36:08;;;;;;;13.98;12.32;;;6.80;99.90;;;;;;5096740;28;20016;-80
2022/03/24 01:38:35;;;;;;;15.43;11.82;;;6.80;99.90;;;;;;5096499;28;20051;-80
2022/03/24 01:41:02;;;;;;;16.50;10.93;;;6.70;99.90;;;;;;5097853;28;20036;-80
2022/03/24 01:43:29;;;;;;;15.25;11.63;;;6.80;99.90;;;;;;5097374;28;20050;-80
2022/03/24 01:45:55;;;;;;;14.75;11.48;;;6.80;99.90;;;;;;5097631;28;20054;-80
2022/03/24 01:48:21;;;;;;;17.27;12.43;;;6.80;99.90;;;;;;5097524;28;20028;-80
2022/03/24 01:50:47;;;;;;;18.08;12.50;;;6.80;99.90;;;;;;5088184;28;20046;-79
2022/03/24 01:53:13;;;;;;;17.42;11.88;;;6.80;99.90;;;;;;5095340;28;20024;-80
2022/03/24 01:55:43;;;;;;;24.88;12.65;;;6.80;99.90;;;;;;5096106;28;20016;-80
2022/03/24 01:58:11;;;;;;;18.87;11.07;;;6.80;99.90;;;;;;5097698;28;20027;-79
2022/03/24 02:00:37;;;;;;;13.35;10.65;;;6.80;99.90;;;;;;5095962;28;20013;-80
2022/03/24 02:03:05;;;;;;;15.90;11.18;;;6.80;99.90;;;;;;5095565;28;20058;-80
2022/03/24 02:05:35;;;;;;;13.02;11.45;;;6.80;99.90;;;;;;5097476;28;20361;-80
2022/03/24 02:08:03;;;;;;;15.48;11.85;;;6.80;99.90;;;;;;5095775;28;20028;-81
2022/03/24 02:10:34;;;;;;;15.50;11.52;;;6.90;99.90;;;;;;5097863;28;20061;-79
2022/03/24 02:13:01;;;;;;;20.05;13.13;;;6.90;99.90;;;;;;5097675;28;20026;-80
2022/03/24 02:15:28;;;;;;;18.23;11.23;;;6.90;99.90;;;;;;5096844;28;20035;-80
2022/03/24 02:17:55;;;;;;;16.25;11.82;;;7.00;99.90;;;;;;5098238;28;20020;-80
2022/03/24 02:20:22;;;;;;;17.48;12.60;;;7.00;99.90;;;;;;5096387;28;20129;-80
2022/03/24 02:22:51;;;;;;;17.67;11.57;;;6.90;99.90;;;;;;5097510;28;20035;-80
2022/03/24 02:25:17;;;;;;;19.33;12.25;;;6.90;99.90;;;;;;5097567;28;20039;-80
2022/03/24 02:27:47;;;;;;;13.00;11.50;;;6.90;99.90;;;;;;5096350;28;20032;-80
2022/03/24 02:30:13;;;;;;;17.20;12.18;;;6.90;99.90;;;;;;5097677;28;20095;-80
2022/03/24 02:32:40;;;;;;;16.65;12.10;;;6.80;99.90;;;;;;5097359;28;20524;-79
2022/03/24 02:35:07;;;;;;;16.08;12.75;;;6.80;99.90;;;;;;5095947;28;20077;-80
2022/03/24 02:37:33;;;;;;;19.40;12.13;;;6.80;99.90;;;;;;5097104;28;20028;-80
2022/03/24 02:40:00;;;;;;;18.65;12.32;;;6.80;99.90;;;;;;5097265;28;20099;-79
2022/03/24 02:42:29;;;;;;;14.82;12.25;;;6.80;99.90;;;;;;5100742;28;20028;-80
2022/03/24 02:45:07;;;;;;;15.35;12.55;;;6.90;99.90;;;;;;5100905;28;20115;-80
2022/03/24 02:47:33;;;;;;;18.05;13.00;;;6.90;99.90;;;;;;5099260;28;20035;-81
2022/03/24 02:50:00;;;;;;;21.58;12.32;;;6.90;99.90;;;;;;5099262;28;20028;-79
2022/03/24 02:52:27;;;;;;;18.58;12.55;;;6.90;99.90;;;;;;5100891;28;20024;-80
2022/03/24 02:54:54;;;;;;;17.83;12.23;;;6.90;99.90;;;;;;5100062;28;20069;-80
2022/03/24 02:57:21;;;;;;;15.13;12.52;;;6.90;99.90;;;;;;5100236;28;20028;-80
2022/03/24 02:59:47;;;;;;;17.42;12.88;;;6.90;99.90;;;;;;5098864;28;20024;-79
2022/03/24 03:02:16;;;;;;;17.10;12.80;;;6.80;99.90;;;;;;5100500;28;20104;-79
2022/03/24 03:04:44;;;;;;;19.00;12.65;;;6.80;99.90;;;;;;5100595;28;20028;-79
2022/03/24 03:07:10;;;;;;;16.45;12.50;;;6.70;99.90;;;;;;5098980;28;20027;-79
2022/03/24 03:09:38;;;;;;;29.73;14.13;;;6.70;99.90;;;;;;5099947;28;20392;-80
2022/03/24 03:12:05;;;;;;;18.55;13.45;;;6.70;99.90;;;;;;5099908;28;20036;-80
2022/03/24 03:14:31;;;;;;;21.65;13.45;;;6.60;99.90;;;;;;5099234;28;20073;-80
2022/03/24 03:16:58;;;;;;;19.73;14.30;;;6.60;99.90;;;;;;5100153;28;20085;-80
2022/03/24 03:19:24;;;;;;;18.88;14.02;;;6.50;99.90;;;;;;5099685;28;20020;-80
2022/03/24 03:21:51;;;;;;;20.35;15.05;;;6.40;99.90;;;;;;5099802;28;20472;-80
2022/03/24 03:24:18;;;;;;;18.08;13.05;;;6.40;99.90;;;;;;5093107;28;20025;-80
2022/03/24 03:26:45;;;;;;;26.05;14.75;;;6.30;99.90;;;;;;5092998;28;20029;-80
2022/03/24 03:29:11;;;;;;;21.98;14.20;;;6.30;99.90;;;;;;5098497;28;20020;-80
2022/03/24 03:31:38;;;;;;;19.17;15.13;;;6.20;99.90;;;;;;5098669;28;20030;-80
2022/03/24 03:34:06;;;;;;;18.63;14.68;;;6.20;99.90;;;;;;5098292;28;20048;-79
2022/03/24 03:36:32;;;;;;;23.58;14.98;;;6.10;99.90;;;;;;5099573;28;20023;-79
2022/03/24 03:38:58;;;;;;;17.40;15.35;;;6.10;99.90;;;;;;5098179;28;20020;-79
2022/03/24 03:41:24;;;;;;;17.92;14.20;;;6.10;99.90;;;;;;5098583;28;20044;-79
2022/03/24 03:43:50;;;;;;;24.25;14.77;;;6.00;99.90;;;;;;5098461;28;20114;-79
2022/03/24 03:46:17;;;;;;;18.35;14.60;;;6.00;99.90;;;;;;5099519;28;20020;-80
2022/03/24 03:48:44;;;;;;;25.35;14.20;;;5.90;99.90;;;;;;5099500;28;20028;-80
2022/03/24 03:51:10;;;;;;;24.48;14.85;;;5.90;99.90;;;;;;5099013;28;20028;-80
2022/03/24 03:53:36;;;;;;;19.75;14.05;;;5.90;99.90;;;;;;5098990;28;20024;-80
2022/03/24 03:56:05;;;;;;;20.10;15.50;;;5.80;99.90;;;;;;5099117;28;20028;-80
2022/03/24 03:58:31;;;;;;;19.20;14.60;;;5.80;99.90;;;;;;5099252;28;20065;-79
2022/03/24 04:00:57;;;;;;;20.83;14.13;;;5.80;99.90;;;;;;5097580;28;20415;-79
2022/03/24 04:03:28;;;;;;;16.60;14.18;;;5.90;99.90;;;;;;5097681;28;20028;-79
2022/03/24 04:05:58;;;;;;;21.45;15.77;;;6.00;99.90;;;;;;5097515;28;20076;-79
2022/03/24 04:08:24;;;;;;;21.73;14.90;;;6.00;99.90;;;;;;5097276;28;20024;-79
2022/03/24 04:10:50;;;;;;;20.83;14.38;;;5.90;99.90;;;;;;5092152;28;20039;-80
2022/03/24 04:13:18;;;;;;;24.58;15.07;;;5.90;99.90;;;;;;5098833;28;20426;-80
2022/03/24 04:15:45;;;;;;;24.33;16.25;;;5.90;99.90;;;;;;5097335;28;20028;-79
2022/03/24 04:18:12;;;;;;;21.35;15.75;;;5.90;99.90;;;;;;5097347;28;20031;-79
2022/03/24 04:20:39;;;;;;;21.42;16.75;;;5.80;99.90;;;;;;5097475;28;20020;-79
2022/03/24 04:23:05;;;;;;;19.90;15.73;;;5.80;99.90;;;;;;5097041;28;20020;-80
2022/03/24 04:25:33;;;;;;;24.52;16.55;;;5.80;99.90;;;;;;5098410;28;20024;-80
2022/03/24 04:27:59;;;;;;;24.30;16.33;;;5.80;99.90;;;;;;5098396;28;20027;-79
2022/03/24 04:30:29;;;;;;;18.38;15.02;;;5.80;99.90;;;;;;5084945;28;20472;-80
2022/03/24 04:32:56;;;;;;;23.20;15.95;;;5.70;99.90;;;;;;5091853;28;20504;-80
2022/03/24 04:35:22;;;;;;;21.58;16.88;;;5.70;99.90;;;;;;5086478;28;20492;-79
2022/03/24 04:37:49;;;;;;;23.38;16.80;;;5.70;99.90;;;;;;5096762;28;20042;-79
2022/03/24 04:40:16;;;;;;;24.75;16.20;;;5.70;99.90;;;;;;5097748;28;20060;-79
2022/03/24 04:42:46;;;;;;;22.50;16.60;;;5.70;99.90;;;;;;5097879;28;20365;-79
2022/03/24 04:45:13;;;;;;;22.02;16.50;;;5.60;99.90;;;;;;5096639;28;20553;-79
2022/03/24 04:47:41;;;;;;;22.20;16.30;;;5.60;99.90;;;;;;5097461;28;20031;-80
2022/03/24 04:50:08;;;;;;;20.48;15.93;;;5.60;99.90;;;;;;5111963;28;20389;-79
2022/03/24 04:52:34;;;;;;;24.20;18.67;;;5.60;99.90;;;;;;5096777;28;20083;-79
2022/03/24 04:55:00;;;;;;;21.90;16.63;;;5.60;99.90;;;;;;5097759;28;20066;-79
2022/03/24 04:57:26;;;;;;;22.73;16.90;;;5.50;99.90;;;;;;5099966;28;20020;-79
2022/03/24 04:59:53;;;;;;;22.10;17.15;;;5.50;99.90;;;;;;5098725;28;20016;-80
2022/03/24 05:02:19;;;;;;;21.90;16.85;;;5.40;99.90;;;;;;5099723;28;20056;-80
2022/03/24 05:04:45;;;;;;;18.33;16.13;;;5.40;99.90;;;;;;5098831;28;20024;-79
2022/03/24 05:07:12;;;;;;;25.00;16.75;;;5.30;99.90;;;;;;5100081;28;20024;-79
2022/03/24 05:09:39;;;;;;;21.13;17.02;;;5.20;99.90;;;;;;5094942;28;20027;-79
2022/03/24 05:12:06;;;;;;;24.38;18.27;;;5.20;99.90;;;;;;5082022;28;20038;-79
2022/03/24 05:14:33;;;;;;;23.35;17.67;;;5.10;99.90;;;;;;5079811;28;20070;-80
2022/03/24 05:16:59;;;;;;;25.55;18.55;;;5.00;99.90;;;;;;5081029;28;20016;-79
2022/03/24 05:19:25;;;;;;;25.23;18.83;;;5.00;99.90;;;;;;5079364;28;20032;-79
2022/03/24 05:21:51;;;;;;;26.20;19.10;;;5.00;99.90;;;;;;5096193;28;20020;-79
2022/03/24 05:24:17;;;;;;;25.40;18.63;;;5.00;99.90;;;;;;5081970;28;20091;-79
2022/03/24 05:26:43;;;;;;;21.88;17.60;;;4.90;99.90;;;;;;5090937;28;20028;-79
2022/03/24 05:29:10;;;;;;;21.80;18.42;;;4.90;99.90;;;;;;5097644;28;20020;-79
2022/03/24 05:31:36;;;;;;;25.95;20.17;;;4.90;99.90;;;;;;5098254;28;20035;-79
2022/03/24 05:34:02;;;;;;;22.85;19.35;;;4.80;99.90;;;;;;5093554;28;20024;-79
2022/03/24 05:36:28;;;;;;;27.10;20.25;;;4.90;99.90;;;;;;5093847;28;20079;-79
2022/03/24 05:38:54;;;;;;;27.13;19.95;;;4.80;99.90;;;;;;5097922;28;20499;-80
2022/03/24 05:41:20;;;;;;;26.92;19.80;;;4.80;99.90;;;;;;5090203;28;20052;-79
2022/03/24 05:44:02;;;;;;;25.55;20.48;;;4.80;99.90;;;;;;5078326;28;20481;-79
2022/03/24 05:46:36;;;;;;;27.35;18.92;;;4.80;99.90;;;;;;5082537;28;20032;-79
2022/03/24 05:49:05;;;;;;;29.67;20.25;;;4.80;99.90;;;;;;5095981;28;20073;-80
2022/03/24 05:51:32;;;;;;;27.55;19.58;;;4.90;99.90;;;;;;5097248;28;20061;-79
2022/03/24 05:53:57;;;;;;;26.85;18.88;;;4.90;99.90;;;;;;5095640;28;20051;-80
2022/03/24 05:56:23;;;;;;;27.75;19.85;;;5.00;99.90;;;;;;5097450;28;20025;-80
2022/03/24 05:58:49;;;;;;;25.40;19.75;;;5.00;99.90;;;;;;5097332;28;20426;-80
2022/03/24 06:01:16;;;;;;;26.23;19.30;;;5.20;99.90;;;;;;5096051;28;20020;-80
2022/03/24 06:03:46;;;;;;;33.35;20.55;;;5.30;99.90;;;;;;5096169;28;20028;-80
2022/03/24 06:06:13;;;;;;;23.17;17.63;;;5.40;99.90;;;;;;5097539;28;20073;-80
2022/03/24 06:08:43;;;;;;;22.63;18.13;;;5.60;99.90;;;;;;5097020;28;20028;-80
2022/03/24 06:11:14;;;;;;;24.73;17.30;;;5.60;99.90;;;;;;5095725;28;20035;-80
2022/03/24 06:13:41;;;;;;;22.98;17.95;;;5.70;99.90;;;;;;5096539;28;20031;-80
2022/03/24 06:16:08;;;;;;;25.65;17.90;;;5.80;99.90;;;;;;5099882;28;20024;-80
2022/03/24 06:18:35;;;;;;;24.42;17.63;;;5.90;99.90;;;;;;5101142;28;20091;-80
2022/03/24 06:21:02;;;;;;;20.75;16.27;;;6.00;99.90;;;;;;5099787;28;20020;-79
2022/03/24 06:23:28;;;;;;;19.50;15.93;;;6.20;99.90;;;;;;5100827;28;20104;-80
2022/03/24 06:25:54;;;;;;;21.27;17.15;;;6.30;99.90;;;;;;5099773;28;20032;-79
2022/03/24 06:28:20;;;;;;;20.15;16.10;;;6.40;99.90;;;;;;5101144;28;20112;-80
2022/03/24 06:30:46;;;;;;;17.23;15.40;;;6.50;99.90;;;;;;5099772;28;20024;-80
2022/03/24 06:33:12;;;;;;;22.23;15.30;;;6.70;99.90;;;;;;5100896;28;20103;-80
2022/03/24 06:35:38;;;;;;;17.92;15.80;;;6.70;99.90;;;;;;5100733;28;20066;-79
2022/03/24 06:38:04;;;;;;;21.40;15.68;;;6.90;99.90;;;;;;5100369;28;20020;-80
2022/03/24 06:40:30;;;;;;;19.70;14.98;;;6.90;99.90;;;;;;5099143;28;20075;-80
2022/03/24 06:42:56;;;;;;;17.23;14.80;;;7.10;99.90;;;;;;5099423;28;20056;-80
2022/03/24 06:45:22;;;;;;;18.85;14.73;;;7.20;99.90;;;;;;5100542;28;20024;-80
2022/03/24 06:47:49;;;;;;;18.00;13.60;;;7.30;99.90;;;;;;5100821;28;20023;-79
2022/03/24 06:50:15;;;;;;;17.08;14.30;;;7.40;99.90;;;;;;5099242;28;20034;-81
2022/03/24 06:52:43;;;;;;;19.98;14.80;;;7.50;99.90;;;;;;5100578;28;20024;-80
2022/03/24 06:55:12;;;;;;;21.27;14.98;;;7.60;99.90;;;;;;5100442;28;20384;-81
2022/03/24 06:57:39;;;;;;;16.27;10.77;;;7.70;99.90;;;;;;5100544;28;20028;-80
2022/03/24 07:00:06;;;;;;;16.27;13.70;;;7.80;99.90;;;;;;5099206;28;20048;-80
2022/03/24 07:02:32;;;;;;;17.27;13.38;;;7.90;99.90;;;;;;5095049;28;20031;-81
2022/03/24 07:04:58;;;;;;;17.55;12.55;;;8.00;99.90;;;;;;5099103;28;20020;-80
2022/03/24 07:07:27;;;;;;;14.40;12.55;;;8.00;99.90;;;;;;5100134;28;20074;-79
2022/03/24 07:09:53;;;;;;;18.02;12.50;;;8.20;99.90;;;;;;5099989;28;20485;-79
2022/03/24 07:12:20;;;;;;;16.67;13.23;;;8.20;99.90;;;;;;5099988;28;20051;-80
2022/03/24 07:14:46;;;;;;;16.35;11.55;;;8.30;99.90;;;;;;5100271;28;20027;-80
2022/03/24 07:17:12;;;;;;;13.82;12.27;;;8.40;99.90;;;;;;5100246;28;20099;-80
2022/03/24 07:19:38;;;;;;;25.75;13.43;;;8.50;99.90;;;;;;5100353;28;20023;-80
2022/03/24 07:22:04;;;;;;;17.02;12.43;;;8.50;99.90;;;;;;5099021;28;20028;-80
2022/03/24 07:24:30;;;;;;;17.58;11.38;;;8.60;99.90;;;;;;5100765;28;20495;-81
2022/03/24 07:26:56;;;;;;;15.52;11.52;;;8.70;99.90;;;;;;5099574;28;20047;-82
2022/03/24 07:29:22;;;;;;;15.70;12.90;;;8.70;99.90;;;;;;5099788;28;20028;-81
2022/03/24 07:31:49;;;;;;;15.82;12.35;;;8.80;99.90;;;;;;5099604;28;20036;-82
2022/03/24 07:34:14;;;;;;;19.17;13.63;;;8.90;99.90;;;;;;5099553;28;20114;-81
2022/03/24 07:36:40;;;;;;;15.55;11.98;;;9.00;99.90;;;;;;5099631;28;20024;-81
2022/03/24 07:39:06;;;;;;;16.77;10.68;;;9.00;99.90;;;;;;5099514;28;20089;-82
2022/03/24 07:41:32;;;;;;;12.38;10.55;;;9.10;99.90;;;;;;5087877;28;20058;-82
2022/03/24 07:43:59;;;;;;;15.30;10.82;;;9.20;99.90;;;;;;5093680;28;20028;-82
2022/03/24 07:46:25;;;;;;;17.73;12.40;;;9.30;99.90;;;;;;5112285;27;20028;-82
2022/03/24 07:48:51;;;;;;;18.67;12.93;;;9.30;99.90;;;;;;5088088;28;20032;-83
2022/03/24 07:51:19;;;;;;;15.98;12.00;;;9.40;99.90;;;;;;5096953;28;20050;-82
2022/03/24 07:53:48;;;;;;;12.48;10.02;;;9.50;99.90;;;;;;5088814;28;20541;-82
2022/03/24 07:56:19;;;;;;;19.88;11.68;;;9.60;99.90;;;;;;5098099;28;20051;-82
2022/03/24 07:58:45;;;;;;;14.75;11.15;;;9.60;99.90;;;;;;5100074;28;20476;-82
2022/03/24 08:01:12;;;;;;;11.60;10.48;;;9.70;99.90;;;;;;5099667;28;20052;-82
2022/03/24 08:03:38;;;;;;;15.40;11.35;;;9.70;99.90;;;;;;5099371;28;20081;-83
2022/03/24 08:06:04;;;;;;;17.73;11.80;;;9.80;99.90;;;;;;5088088;28;20032;-82
2022/03/24 08:08:30;;;;;;;15.20;11.48;;;9.90;99.90;;;;;;5082764;28;20024;-81
2022/03/24 08:10:57;;;;;;;14.52;11.07;;;10.00;99.90;;;;;;5083599;28;20028;-83
2022/03/24 08:13:24;;;;;;;18.48;10.82;;;10.10;99.90;;;;;;5097538;28;20024;-80
2022/03/24 08:15:50;;;;;;;15.73;11.32;;;10.10;99.90;;;;;;5099045;28;20389;-81
2022/03/24 08:18:17;;;;;;;11.15;9.88;;;10.10;99.90;;;;;;5099237;28;20015;-80
2022/03/24 08:20:47;;;;;;;15.60;10.93;;;10.20;99.90;;;;;;5097460;28;20031;-80
2022/03/24 08:23:13;;;;;;;12.77;10.27;;;10.30;99.90;;;;;;5097304;28;20039;-79
2022/03/24 08:25:42;;;;;;;17.90;9.95;;;10.30;99.90;;;;;;5098484;28;20016;-80
2022/03/24 08:28:10;;;;;;;18.48;11.27;;;10.30;99.90;;;;;;5098757;28;20400;-80
2022/03/24 08:30:35;;;;;;;15.55;10.55;;;10.40;99.90;;;;;;5093669;28;20485;-81
2022/03/24 08:33:01;;;;;;;15.38;10.52;;;10.50;99.90;;;;;;5110488;27;20050;-80
2022/03/24 08:35:27;;;;;;;15.07;11.02;;;10.50;99.90;;;;;;5096739;28;20032;-80
2022/03/24 08:37:55;;;;;;;10.77;9.52;;;10.60;99.90;;;;;;5097304;28;20017;-79
2022/03/24 08:40:22;;;;;;;16.92;12.18;;;10.70;99.90;;;;;;5098373;28;20072;-80
2022/03/24 08:42:48;;;;;;;20.17;10.90;;;10.70;99.90;;;;;;5098572;28;20055;-79
2022/03/24 08:45:15;;;;;;;17.58;11.77;;;10.80;99.90;;;;;;5089918;28;20016;-81
2022/03/24 08:47:41;;;;;;;12.48;10.10;;;10.90;99.90;;;;;;5115355;27;20020;-79
2022/03/24 08:50:09;;;;;;;15.05;9.88;;;10.90;99.90;;;;;;5097873;28;20032;-79
2022/03/24 08:52:35;;;;;;;15.65;10.35;;;11.00;99.90;;;;;;5096891;28;20111;-81
2022/03/24 08:55:06;;;;;;;13.43;10.25;;;11.00;99.90;;;;;;5098214;28;20086;-80
2022/03/24 08:57:33;;;;;;;14.07;10.13;;;11.10;99.90;;;;;;5091487;28;20062;-80
2022/03/24 09:00:02;;;;;;;16.10;10.85;;;11.20;99.90;;;;;;5098583;28;20049;-81
2022/03/24 09:02:29;;;;;;;27.90;10.68;;;11.30;99.90;;;;;;5098154;28;20023;-80
2022/03/24 09:04:55;;;;;;;13.90;9.70;;;11.40;99.90;;;;;;5088827;28;20036;-80
2022/03/24 09:07:21;;;;;;;15.18;10.18;;;11.50;99.90;;;;;;5095959;28;20111;-81
2022/03/24 09:09:46;;;;;;;14.18;10.25;;;11.60;99.90;;;;;;5097189;28;20084;-81
2022/03/24 09:12:13;;;;;;;15.60;10.02;;;11.70;99.90;;;;;;5096477;28;20035;-80
2022/03/24 09:14:40;;;;;;;21.08;10.50;;;11.70;99.90;;;;;;5097862;28;20103;-81
2022/03/24 09:17:07;;;;;;;13.52;9.90;;;11.80;99.90;;;;;;5096383;28;20080;-80
2022/03/24 09:19:33;;;;;;;13.82;9.95;;;11.90;99.90;;;;;;5096205;28;20031;-80
2022/03/24 09:22:05;;;;;;;10.32;8.70;;;12.00;99.90;;;;;;5096371;28;20097;-80
2022/03/24 09:24:31;;;;;;;14.73;8.75;;;12.00;99.90;;;;;;5096396;28;20077;-79
2022/03/24 09:26:57;;;;;;;10.63;8.48;;;12.00;99.90;;;;;;5097519;28;20024;-81
2022/03/24 09:29:23;;;;;;;12.23;8.75;;;12.00;99.90;;;;;;5090665;28;20102;-80
2022/03/24 09:31:50;;;;;;;15.68;8.90;;;12.10;99.90;;;;;;5093334;28;20028;-82
2022/03/24 09:34:16;;;;;;;17.98;8.95;;;12.10;99.90;;;;;;5096443;28;20081;-79
2022/03/24 09:36:42;;;;;;;13.93;7.45;;;12.10;99.90;;;;;;5096067;28;20505;-80
2022/03/24 09:39:08;;;;;;;16.13;8.57;;;12.20;99.90;;;;;;5097557;28;20090;-80
2022/03/24 09:41:37;;;;;;;11.85;7.90;;;12.30;99.90;;;;;;5097498;28;20074;-79
2022/03/24 09:44:07;;;;;;;13.02;9.63;;;12.30;99.90;;;;;;5096443;28;20028;-81
2022/03/24 09:46:33;;;;;;;14.00;7.95;;;12.40;99.90;;;;;;5096182;28;20496;-80
2022/03/24 09:48:59;;;;;;;11.10;8.38;;;12.50;99.90;;;;;;5098276;28;20028;-81
2022/03/24 09:51:26;;;;;;;13.30;8.40;;;12.60;99.90;;;;;;5101908;28;20484;-81
2022/03/24 09:53:52;;;;;;;12.02;8.93;;;12.70;99.90;;;;;;5101411;28;20024;-81
2022/03/24 09:56:19;;;;;;;14.27;8.80;;;12.80;99.90;;;;;;5101885;28;20024;-80
2022/03/24 09:58:48;;;;;;;10.48;7.80;;;12.90;99.90;;;;;;5100565;28;20032;-81
2022/03/24 10:01:14;;;;;;;11.40;8.30;;;13.00;99.90;;;;;;5101704;28;20086;-81
2022/03/24 10:04:03;;;;;;;9.75;8.63;;;13.10;99.90;;;;;;5101798;28;20080;-80
2022/03/24 10:06:29;;;;;;;16.65;7.95;;;13.00;99.90;;;;;;5099842;28;20024;-80
2022/03/24 10:08:55;;;;;;;14.88;8.82;;;13.00;99.90;;;;;;5101106;28;20463;-80
2022/03/24 10:11:25;;;;;;;13.45;8.48;;;13.00;99.90;;;;;;5100748;28;20028;-81
2022/03/24 10:13:57;;;;;;;16.52;8.73;;;13.10;99.90;;;;;;5099610;28;20050;-79
2022/03/24 10:16:40;;;;;;;12.18;8.43;;;13.10;99.90;;;;;;5099838;28;20025;-80
2022/03/24 10:19:11;;;;;;;10.95;8.07;;;13.20;99.90;;;;;;5100612;28;20031;-81
2022/03/24 10:21:43;;;;;;;11.93;7.93;;;13.30;99.90;;;;;;5099356;28;20027;-80
2022/03/24 10:24:21;;;;;;;14.93;7.63;;;13.30;99.90;;;;;;5100139;28;20066;-81
2022/03/24 10:26:50;;;;;;;15.90;8.40;;;13.40;99.90;;;;;;5099866;28;20078;-80
2022/03/24 10:29:19;;;;;;;12.07;7.72;;;13.50;99.90;;;;;;5101343;28;20032;-81
2022/03/24 10:31:50;;;;;;;13.20;8.27;;;13.60;99.90;;;;;;5099822;28;20052;-80
2022/03/24 10:34:15;;;;;;;9.90;7.72;;;13.70;99.90;;;;;;5099890;28;20197;-81
2022/03/24 10:36:41;;;;;;;16.95;7.80;;;13.80;99.90;;;;;;5099954;28;20079;-81
2022/03/24 10:39:09;;;;;;;21.88;8.00;;;13.80;99.90;;;;;;5101117;28;20055;-80
2022/03/24 10:41:38;;;;;;;11.57;7.43;;;13.90;99.90;;;;;;5101086;28;20074;-80
2022/03/24 10:44:13;;;;;;;10.77;8.30;;;13.90;99.90;;;;;;5101400;28;20103;-80
2022/03/24 10:46:43;;;;;;;10.30;8.07;;;13.80;99.90;;;;;;5101886;28;20020;-80
2022/03/24 10:49:23;;;;;;;11.43;7.82;;;13.90;99.90;;;;;;5101438;28;20024;-82
2022/03/24 10:51:51;;;;;;;12.95;7.82;;;13.90;99.90;;;;;;5101167;28;20073;-79
2022/03/24 10:54:48;;;;;;;14.18;8.05;;;14.10;99.90;;;;;;5089937;28;20161;-80
2022/03/24 10:57:24;;;;;;;9.63;7.65;;;14.20;99.90;;;;;;5098751;28;20020;-80
2022/03/24 10:59:58;;;;;;;11.77;7.85;;;14.20;99.90;;;;;;5100308;28;20020;-80
2022/03/24 11:02:28;;;;;;;14.38;8.10;;;14.30;99.90;;;;;;5098374;28;20024;-81
2022/03/24 11:04:58;;;;;;;12.35;8.30;;;14.40;99.90;;;;;;5098318;28;20114;-80
2022/03/24 11:07:25;;;;;;;11.07;7.40;;;14.50;99.90;;;;;;5094440;28;20019;-79
2022/03/24 11:09:51;;;;;;;8.60;7.28;;;14.60;99.90;;;;;;5099816;28;20028;-80
2022/03/24 11:12:27;;;;;;;11.82;7.68;;;14.70;99.90;;;;;;5100039;28;20472;-81
2022/03/24 11:14:59;;;;;;;9.48;6.75;;;14.70;99.90;;;;;;5100223;28;20024;-79
2022/03/24 11:17:27;;;;;;;9.38;7.13;;;14.70;99.90;;;;;;5100367;28;20022;-80
2022/03/24 11:20:03;;;;;;;10.15;7.90;;;14.60;99.90;;;;;;5095707;28;20032;-79
2022/03/24 11:22:52;;;;;;;12.10;6.68;;;14.60;99.90;;;;;;5097968;28;20016;-79
2022/03/24 11:25:20;;;;;;;8.77;7.82;;;14.60;99.90;;;;;;5097908;28;20024;-80
2022/03/24 11:27:47;;;;;;;10.80;6.90;;;14.80;99.90;;;;;;5098756;28;20055;-80
2022/03/24 11:30:15;;;;;;;12.15;7.25;;;14.80;99.90;;;;;;5098560;28;20552;-80
2022/03/24 11:32:43;;;;;;;15.32;8.25;;;14.90;99.90;;;;;;5098363;28;20020;-80
2022/03/24 11:35:11;;;;;;;12.07;7.68;;;15.00;99.90;;;;;;5099626;28;20048;-81
2022/03/24 11:37:37;;;;;;;9.55;7.63;;;15.10;99.90;;;;;;5090304;28;20019;-83
2022/03/24 11:40:23;;;;;;;9.18;7.38;;;15.10;99.90;;;;;;5099461;28;20069;-82
2022/03/24 11:42:54;;;;;;;10.23;7.15;;;15.10;99.90;;;;;;5100003;28;20095;-83
2022/03/24 11:45:24;;;;;;;15.00;7.20;;;15.10;99.90;;;;;;5090742;28;20035;-83
2022/03/24 11:48:11;;;;;;;18.08;6.70;;;15.10;99.90;;;;;;5084691;28;20076;-83
2022/03/24 11:50:46;;;;;;;16.15;6.65;;;15.00;99.90;;;;;;5089643;28;20487;-83
2022/03/24 11:53:30;;;;;;;8.38;6.72;;;15.10;99.90;;;;;;5102020;28;20093;-83
2022/03/24 11:55:59;;;;;;;7.35;6.55;;;15.20;99.90;;;;;;5100033;28;20031;-83
2022/03/24 11:58:29;;;;;;;6.70;5.93;;;15.20;99.90;;;;;;5101551;28;20020;-83
2022/03/24 12:00:56;;;;;;;7.97;6.15;;;15.40;99.90;;;;;;5099159;28;20024;-82
2022/03/24 12:03:42;;;;;;;7.65;6.18;;;15.40;99.90;;;;;;5099583;28;20038;-83
2022/03/24 12:06:09;;;;;;;13.13;6.88;;;15.40;99.90;;;;;;5101070;28;20025;-83
2022/03/24 12:09:00;;;;;;;11.18;6.13;;;15.40;99.90;;;;;;5100774;28;20020;-83
2022/03/24 12:11:33;;;;;;;12.50;6.65;;;15.40;99.90;;;;;;5100760;28;20065;-83
2022/03/24 12:14:03;;;;;;;10.48;6.18;;;15.40;99.90;;;;;;5100232;28;20032;-84
2022/03/24 12:16:29;;;;;;;10.90;6.60;;;15.50;99.90;;;;;;5096962;28;20032;-82
2022/03/24 12:18:55;;;;;;;10.05;6.40;;;15.60;99.90;;;;;;5093626;28;20107;-83
2022/03/24 12:21:28;;;;;;;9.70;5.63;;;15.70;99.90;;;;;;5100186;28;20027;-82
2022/03/24 12:24:17;;;;;;;10.38;5.97;;;15.70;99.90;;;;;;5099171;28;20053;-82
2022/03/24 12:26:52;;;;;;;10.18;6.13;;;15.70;99.90;;;;;;5089042;28;20505;-83
2022/03/24 12:29:21;;;;;;;12.55;6.22;;;15.90;99.90;;;;;;5087579;28;20059;-84
2022/03/24 12:32:09;;;;;;;11.52;6.28;;;16.10;99.90;;;;;;5079925;28;20079;-84
2022/03/24 12:34:38;;;;;;;13.57;5.47;;;16.20;99.90;;;;;;5083793;28;20025;-83
2022/03/24 12:37:25;;;;;;;9.60;6.22;;;16.20;99.90;;;;;;5098333;28;20092;-84
2022/03/24 12:40:07;;;;;;;10.13;6.22;;;16.30;99.90;;;;;;5098334;28;20035;-83